Time;durP1;ratioP1;P1;durP2;ratioP2;P2;SDS_P1;SDS_P2;PMS_P1;PMS_P2;Temp;Humidity;BMP_temperature;BMP_pressure;BME280_temperature;BME280_humidity;BME280_pressure;Samples;Min_cycle;Max_cycle;Signal;HPM_P1;HPM_P2
2021/08/01 00:01:56;;;;;;;7.28;4.42;;;;;;;18.94;100.00;100210.30;1755311;81;21065;-87
2021/08/01 00:04:22;;;;;;;7.95;4.47;;;;;;;18.91;100.00;100214.53;1754634;81;21067;-93
2021/08/01 00:06:49;;;;;;;7.72;4.47;;;;;;;18.91;100.00;100220.07;1754443;81;21062;-93
2021/08/01 00:09:17;;;;;;;7.40;4.65;;;;;;;18.94;100.00;100221.93;1754798;81;21070;-92
2021/08/01 00:11:43;;;;;;;9.43;5.58;;;;;;;18.98;100.00;100213.19;1718195;81;21054;-92
2021/08/01 00:14:10;;;;;;;7.78;4.65;;;;;;;19.03;100.00;100224.04;1755540;81;21103;-87
2021/08/01 00:16:38;;;;;;;9.55;4.40;;;;;;;19.08;100.00;100214.94;1762271;81;21080;-88
2021/08/01 00:19:05;;;;;;;7.67;4.60;;;;;;;19.08;100.00;100214.94;1731956;82;21064;-86
2021/08/01 00:21:32;;;;;;;8.78;4.92;;;;;;;19.11;100.00;100221.20;1706788;82;20993;-87
2021/08/01 00:23:58;;;;;;;7.40;5.28;;;;;;;19.22;100.00;100221.55;1733206;82;20997;-93
2021/08/01 00:26:25;;;;;;;6.67;4.30;;;;;;;19.22;100.00;100221.55;1732362;82;21584;-93
2021/08/01 00:28:51;;;;;;;7.67;5.08;;;;;;;19.27;100.00;100211.64;1731467;82;21119;-87
2021/08/01 00:31:18;;;;;;;8.55;5.05;;;;;;;19.38;100.00;100207.03;1732386;82;21047;-92
2021/08/01 00:33:45;;;;;;;6.45;4.80;;;;;;;19.38;100.00;100207.03;1732392;81;22303;-86
2021/08/01 00:36:12;;;;;;;5.97;4.83;;;;;;;19.42;100.00;100210.73;1708856;81;21104;-92
2021/08/01 00:38:39;;;;;;;7.08;4.25;;;;;;;19.42;100.00;100210.73;1733185;82;22185;-91
2021/08/01 00:41:05;;;;;;;7.17;4.22;;;;;;;19.45;100.00;100204.50;1732041;82;21051;-87
2021/08/01 00:43:34;;;;;;;5.05;3.98;;;;;;;19.49;100.00;100204.05;1732117;82;21056;-86
2021/08/01 00:46:00;;;;;;;9.03;4.53;;;;;;;19.53;100.00;100198.03;1707228;82;21024;-87
2021/08/01 00:48:27;;;;;;;6.62;3.58;;;;;;;19.52;100.00;100196.42;1735293;77;21047;-87
2021/08/01 00:50:54;;;;;;;7.03;4.10;;;;;;;19.50;100.00;100196.75;1732451;82;21052;-87
2021/08/01 00:53:21;;;;;;;5.75;3.85;;;;;;;19.45;100.00;100221.13;1732790;82;21122;-92
2021/08/01 00:55:50;;;;;;;7.78;4.53;;;;;;;19.34;100.00;100204.95;1707033;82;21032;-87
2021/08/01 00:58:17;;;;;;;6.90;3.80;;;;;;;19.25;100.00;100213.13;1731826;82;21040;-87
2021/08/01 01:01:08;;;;;;;5.87;3.90;;;;;;;19.19;100.00;100209.78;1732640;82;21120;-87
2021/08/01 01:03:55;;;;;;;8.43;4.28;;;;;;;19.13;100.00;100208.38;1710620;82;21918;-86
2021/08/01 01:06:55;;;;;;;10.95;4.60;;;;;;;19.11;100.00;100207.34;1730644;81;21035;-87
2021/08/01 01:09:43;;;;;;;8.35;4.50;;;;;;;19.11;100.00;100198.20;1762262;81;21062;-87
2021/08/01 01:12:34;;;;;;;7.08;4.70;;;;;;;19.10;100.00;100202.14;1729439;82;21091;-87
2021/08/01 01:15:11;;;;;;;4.55;3.60;;;;;;;19.11;100.00;100198.20;1707075;82;21048;-87
2021/08/01 01:17:34;;;;;;;6.90;4.22;;;;;;;19.10;100.00;100199.38;1731745;82;21040;-92
2021/08/01 01:20:42;;;;;;;6.87;4.08;;;;;;;19.11;100.00;100200.42;1682513;82;21067;-87
2021/08/01 01:23:37;;;;;;;8.45;4.20;;;;;;;19.12;100.00;100199.84;1743169;81;21036;-87
2021/08/01 01:26:43;;;;;;;8.88;4.17;;;;;;;19.21;100.00;100196.95;1673340;85;21079;-87
2021/08/01 01:30:00;;;;;;;5.85;3.62;;;;;;;19.30;100.00;100198.47;1670301;85;21139;-92
2021/08/01 01:32:54;;;;;;;6.80;3.70;;;;;;;19.34;100.00;100206.92;1742955;81;21048;-88
2021/08/01 01:35:21;;;;;;;6.58;3.95;;;;;;;19.34;100.00;100203.56;1753380;81;21088;-93
2021/08/01 01:37:50;;;;;;;8.45;4.12;;;;;;;19.40;100.00;100197.80;1751684;82;21052;-93
2021/08/01 01:40:36;;;;;;;5.62;3.72;;;;;;;19.40;100.00;100197.80;1750230;82;21686;-93
2021/08/01 01:43:10;;;;;;;4.72;3.50;;;;;;;19.36;100.00;100204.59;1744539;82;21061;-92
2021/08/01 01:45:37;;;;;;;8.75;4.30;;;;;;;19.25;100.00;100191.77;1696351;82;21056;-92
2021/08/01 01:48:04;;;;;;;7.40;4.62;;;;;;;19.13;100.00;100191.75;1721015;82;21096;-92
2021/08/01 01:50:31;;;;;;;8.65;4.95;;;;;;;19.01;100.00;100186.99;1750329;82;21025;-88
2021/08/01 01:52:58;;;;;;;8.25;4.97;;;;;;;18.90;100.00;100183.86;1720275;82;22205;-87
2021/08/01 01:55:28;;;;;;;8.53;4.17;;;;;;;18.80;100.00;100180.14;1750064;82;21536;-92
2021/08/01 01:57:56;;;;;;;7.78;5.05;;;;;;;18.73;100.00;100188.16;1750144;82;21116;-93
2021/08/01 02:00:24;;;;;;;8.43;4.42;;;;;;;18.68;100.00;100182.26;1714946;82;21004;-92
2021/08/01 02:02:52;;;;;;;9.10;4.60;;;;;;;18.64;100.00;100177.19;1748641;82;21069;-87
2021/08/01 02:05:23;;;;;;;7.55;4.28;;;;;;;18.61;100.00;100180.61;1743816;82;21085;-88
2021/08/01 02:08:01;;;;;;;10.40;4.58;;;;;;;18.57;100.00;100182.46;1750160;82;21045;-92
2021/08/01 02:10:53;;;;;;;6.45;4.33;;;;;;;18.55;100.00;100189.48;1743798;82;21049;-92
2021/08/01 02:13:25;;;;;;;6.33;4.00;;;;;;;18.52;100.00;100187.38;1714694;82;21002;-87
2021/08/01 02:15:55;;;;;;;;;;;;;;;18.44;100.00;100195.41;1752771;81;21045;-93
2021/08/01 02:18:31;;;;;;;6.00;4.67;;;;;;;18.35;100.00;100202.19;1750085;81;20212;-92
2021/08/01 02:20:59;;;;;;;8.58;5.22;;;;;;;18.28;100.00;100204.68;1749521;82;21004;-87
2021/08/01 02:23:39;;;;;;;5.78;4.22;;;;;;;18.22;100.00;100202.66;1750181;82;21022;-87
2021/08/01 02:26:06;;;;;;;8.25;4.00;;;;;;;18.19;100.00;100195.05;1722323;82;21056;-93
2021/08/01 02:28:33;;;;;;;7.65;4.65;;;;;;;18.16;100.00;100197.11;1750277;81;21077;-93
2021/08/01 02:31:01;;;;;;;7.83;4.47;;;;;;;18.13;100.00;100190.88;1720028;82;21190;-92
2021/08/01 02:33:28;;;;;;;5.45;4.12;;;;;;;18.09;100.00;100200.98;1750222;82;21041;-92
2021/08/01 02:36:01;;;;;;;8.53;4.78;;;;;;;18.04;100.00;100200.61;1755931;81;21052;-86
2021/08/01 02:38:29;;;;;;;11.85;4.33;;;;;;;18.03;100.00;100208.09;1758527;81;21041;-87
2021/08/01 02:41:00;;;;;;;7.60;4.42;;;;;;;18.03;100.00;100208.09;1759886;81;21072;-87
2021/08/01 02:43:28;;;;;;;7.87;4.25;;;;;;;18.08;100.00;100216.77;1759625;79;20954;-88
2021/08/01 02:45:55;;;;;;;5.20;4.30;;;;;;;18.10;100.00;100215.03;1734452;80;20954;-92
2021/08/01 02:48:23;;;;;;;7.10;4.33;;;;;;;18.14;100.00;100212.65;1760370;81;21009;-92
2021/08/01 02:50:55;;;;;;;10.18;3.95;;;;;;;18.17;100.00;100216.11;1759090;81;21064;-87
2021/08/01 02:53:22;;;;;;;8.43;5.03;;;;;;;18.19;100.00;100204.73;1760817;81;21526;-87
2021/08/01 02:55:50;;;;;;;7.25;4.47;;;;;;;18.21;100.00;100205.20;1733224;81;21563;-87
2021/08/01 02:58:17;;;;;;;8.03;5.08;;;;;;;18.23;100.00;100202.92;1733325;81;21076;-93
2021/08/01 03:00:47;;;;;;;8.58;5.03;;;;;;;18.24;100.00;100212.83;1758337;81;21277;-92
2021/08/01 03:03:15;;;;;;;6.92;4.20;;;;;;;18.25;100.00;100204.20;1759442;81;21100;-87
2021/08/01 03:05:43;;;;;;;7.30;3.87;;;;;;;18.30;100.00;100203.19;1759782;81;20994;-87
2021/08/01 03:08:13;;;;;;;7.40;4.30;;;;;;;18.39;100.00;100201.73;1759328;81;21032;-93
2021/08/01 03:10:48;;;;;;;9.73;4.45;;;;;;;18.51;100.00;100209.28;1758764;81;21578;-88
2021/08/01 03:13:17;;;;;;;7.78;4.50;;;;;;;18.64;100.00;100205.41;1733809;81;21116;-87
2021/08/01 03:15:45;;;;;;;6.25;4.17;;;;;;;18.75;100.00;100199.70;1758631;81;21096;-92
2021/08/01 03:18:12;;;;;;;5.90;3.50;;;;;;;18.88;100.00;100193.08;1759510;81;21099;-87
2021/08/01 03:20:39;;;;;;;6.75;3.85;;;;;;;19.04;100.00;100193.80;1760660;81;21037;-88
2021/08/01 03:23:24;;;;;;;5.08;3.27;;;;;;;19.21;100.00;100190.83;1759231;81;21080;-93
2021/08/01 03:25:54;;;;;;;7.58;4.35;;;;;;;19.43;100.00;100185.44;1733406;81;21032;-87
2021/08/01 03:28:21;;;;;;;4.80;3.65;;;;;;;19.65;100.00;100194.45;1732747;81;21104;-87
2021/08/01 03:30:48;;;;;;;6.55;4.62;;;;;;;19.84;100.00;100197.48;1759878;81;21002;-91
2021/08/01 03:33:17;;;;;;;7.17;3.80;;;;;;;20.07;100.00;100185.30;1760069;81;21060;-93
2021/08/01 03:35:43;;;;;;;5.08;3.52;;;;;;;20.27;100.00;100179.36;1754038;81;21060;-88
2021/08/01 03:38:16;;;;;;;6.47;3.40;;;;;;;20.46;100.00;100170.41;1747926;82;21042;-92
2021/08/01 03:41:01;;;;;;;7.33;3.95;;;;;;;20.62;100.00;100170.47;1719521;82;21492;-92
2021/08/01 03:43:28;;;;;;;6.03;3.70;;;;;;;20.77;100.00;100179.45;1750020;82;21069;-87
2021/08/01 03:45:56;;;;;;;6.72;4.05;;;;;;;20.94;100.00;100184.42;1750800;81;21014;-88
2021/08/01 03:48:23;;;;;;;5.70;3.00;;;;;;;21.11;100.00;100161.06;1750095;82;21144;-93
2021/08/01 03:50:49;;;;;;;4.95;3.33;;;;;;;21.27;100.00;100186.90;1726584;83;21064;-88
2021/08/01 03:53:16;;;;;;;5.60;3.30;;;;;;;21.45;100.00;100184.00;1726627;83;21072;-92
2021/08/01 03:55:43;;;;;;;4.87;3.67;;;;;;;21.64;100.00;100189.42;1727895;80;21111;-92
2021/08/01 03:58:10;;;;;;;6.30;3.95;;;;;;;21.80;100.00;100189.39;1745597;82;21093;-88
2021/08/01 04:00:37;;;;;;;5.35;3.27;;;;;;;21.97;99.16;100189.58;1737606;82;21488;-95
2021/08/01 04:03:03;;;;;;;6.72;3.77;;;;;;;22.13;97.72;100191.72;1737645;82;21087;-94
2021/08/01 04:05:30;;;;;;;7.87;3.55;;;;;;;22.28;96.60;100193.70;1737814;81;21479;-88
2021/08/01 04:07:59;;;;;;;4.78;3.37;;;;;;;22.45;95.81;100195.25;1739096;82;21096;-94
2021/08/01 04:10:27;;;;;;;4.70;3.35;;;;;;;22.60;95.03;100197.73;1737827;82;21563;-88
2021/08/01 04:12:54;;;;;;;6.35;3.60;;;;;;;22.73;94.63;100196.39;1737896;82;21508;-88
2021/08/01 04:15:20;;;;;;;6.33;3.70;;;;;;;22.85;93.37;100185.69;1737764;82;21135;-93
2021/08/01 04:17:47;;;;;;;6.22;4.00;;;;;;;23.00;92.52;100190.14;1737878;82;21551;-93
2021/08/01 04:20:15;;;;;;;4.08;2.92;;;;;;;23.09;91.91;100185.94;1737661;82;21096;-88
2021/08/01 04:22:42;;;;;;;5.00;3.25;;;;;;;23.16;90.64;100195.02;1733950;81;21119;-88
2021/08/01 04:25:10;;;;;;;7.00;4.03;;;;;;;23.21;89.93;100199.49;1737695;82;21076;-88
2021/08/01 04:27:37;;;;;;;5.45;3.22;;;;;;;23.21;89.29;100194.72;1745556;81;21069;-88
2021/08/01 04:30:08;;;;;;;4.83;3.30;;;;;;;23.20;89.04;100196.50;1737578;82;21594;-88
2021/08/01 04:32:35;;;;;;;7.62;3.72;;;;;;;23.22;89.11;100194.13;1739483;82;20975;-93
2021/08/01 04:35:01;;;;;;;5.67;3.20;;;;;;;23.28;89.49;100195.44;1737636;81;21100;-94
2021/08/01 04:37:29;;;;;;;4.83;3.50;;;;;;;23.38;89.19;100197.60;1737549;82;21532;-93
2021/08/01 04:39:56;;;;;;;7.00;3.92;;;;;;;23.52;88.97;100197.05;1740496;78;21041;-89
2021/08/01 04:42:23;;;;;;;5.03;3.25;;;;;;;23.67;88.48;100203.66;1698901;83;22311;-88
2021/08/01 04:44:50;;;;;;;7.40;3.75;;;;;;;23.82;87.87;100201.33;1746771;81;21331;-88
2021/08/01 04:47:17;;;;;;;4.60;3.30;;;;;;;23.97;87.08;100198.16;1737780;82;21067;-88
2021/08/01 04:49:44;;;;;;;6.33;3.83;;;;;;;24.15;86.78;100194.22;1745416;81;21060;-89
2021/08/01 04:52:16;;;;;;;4.55;2.87;;;;;;;24.32;85.87;100194.25;1714068;82;21076;-88
2021/08/01 04:54:45;;;;;;;5.67;3.40;;;;;;;24.48;84.97;100196.30;1737730;82;21029;-95
2021/08/01 04:57:13;;;;;;;5.03;3.20;;;;;;;24.65;84.06;100190.12;1739007;82;21076;-88
2021/08/01 04:59:40;;;;;;;5.10;2.83;;;;;;;24.84;83.24;100198.09;1738399;81;21061;-94
2021/08/01 05:02:06;;;;;;;6.28;3.90;;;;;;;25.03;82.09;100202.70;1738614;82;21112;-88
2021/08/01 05:04:33;;;;;;;5.90;4.15;;;;;;;25.22;81.85;100201.70;1738020;82;21444;-89
2021/08/01 05:06:59;;;;;;;5.65;3.02;;;;;;;25.42;80.96;100200.88;1737519;82;21022;-94
2021/08/01 05:09:26;;;;;;;4.58;2.92;;;;;;;25.63;80.00;100198.26;1738892;81;21006;-95
2021/08/01 05:11:53;;;;;;;4.60;3.27;;;;;;;25.86;79.18;100193.05;1738583;82;21519;-89
2021/08/01 05:14:20;;;;;;;7.37;3.72;;;;;;;26.05;78.45;100189.18;1737993;81;21006;-95
2021/08/01 05:16:46;;;;;;;5.45;3.40;;;;;;;26.20;78.16;100187.27;1737598;82;21054;-92
2021/08/01 05:19:13;;;;;;;5.15;2.92;;;;;;;26.32;78.75;100195.33;1708681;82;21112;-88
2021/08/01 05:21:39;;;;;;;5.22;3.33;;;;;;;26.43;78.20;100189.77;1738895;82;21112;-88
2021/08/01 05:24:06;;;;;;;4.53;3.37;;;;;;;26.51;76.95;100193.61;1737596;82;21072;-89
2021/08/01 05:26:34;;;;;;;5.95;3.35;;;;;;;26.64;76.32;100197.48;1737511;82;21064;-93
2021/08/01 05:29:01;;;;;;;5.10;2.83;;;;;;;26.79;77.11;100200.53;1737751;82;21056;-88
2021/08/01 05:31:27;;;;;;;4.10;2.52;;;;;;;26.95;76.66;100202.97;1737640;82;21092;-93
2021/08/01 05:33:54;;;;;;;6.12;3.45;;;;;;;27.06;75.39;100205.20;1740662;82;21041;-95
2021/08/01 05:36:21;;;;;;;4.45;3.12;;;;;;;27.13;75.69;100201.02;1737539;81;21108;-88
2021/08/01 05:38:48;;;;;;;3.25;2.72;;;;;;;27.24;75.41;100202.45;1745541;81;21048;-89
2021/08/01 05:41:18;;;;;;;4.67;3.00;;;;;;;27.36;75.60;100206.27;1737598;82;21483;-89
2021/08/01 05:43:45;;;;;;;6.87;3.50;;;;;;;27.49;75.40;100204.47;1737605;82;21267;-94
2021/08/01 05:46:12;;;;;;;5.45;3.00;;;;;;;27.61;74.88;100197.84;1738569;82;21080;-89
2021/08/01 05:48:39;;;;;;;4.55;3.08;;;;;;;27.70;74.29;100198.86;1737930;82;21069;-94
2021/08/01 05:51:07;;;;;;;5.03;2.85;;;;;;;27.81;74.21;100202.44;1737522;82;21694;-88
2021/08/01 05:53:34;;;;;;;5.55;3.37;;;;;;;27.93;74.38;100208.88;1708424;82;21108;-94
2021/08/01 05:56:11;;;;;;;5.08;3.50;;;;;;;28.03;74.52;100194.02;1739156;82;21053;-90
2021/08/01 05:58:38;;;;;;;4.55;3.15;;;;;;;28.11;73.27;100194.80;1737837;82;21072;-96
2021/08/01 06:01:09;;;;;;;4.35;3.33;;;;;;;28.17;72.92;100199.59;1737582;82;21690;-88
2021/08/01 06:03:35;;;;;;;5.83;4.07;;;;;;;28.21;72.73;100200.98;1738589;81;21084;-89
2021/08/01 06:06:18;;;;;;;4.60;3.58;;;;;;;28.24;72.25;100198.75;1737902;82;21167;-95
2021/08/01 06:08:47;;;;;;;5.78;3.50;;;;;;;28.25;72.56;100196.95;1738949;82;21083;-88
2021/08/01 06:11:14;;;;;;;5.53;3.77;;;;;;;28.21;72.02;100200.37;1737767;82;22091;-94
2021/08/01 06:13:42;;;;;;;5.90;3.58;;;;;;;28.16;72.05;100199.38;1737609;82;21068;-94
2021/08/01 06:16:10;;;;;;;5.75;3.70;;;;;;;28.11;72.17;100196.99;1737465;82;21512;-95
2021/08/01 06:18:37;;;;;;;5.08;3.27;;;;;;;28.13;72.38;100198.00;1737542;82;21056;-89
2021/08/01 06:21:18;;;;;;;5.30;3.75;;;;;;;28.16;72.32;100199.38;1709829;82;21084;-93
2021/08/01 06:23:52;;;;;;;5.85;3.98;;;;;;;28.21;71.89;100203.78;1738423;82;21060;-95
2021/08/01 06:26:20;;;;;;;5.70;4.00;;;;;;;28.26;71.19;100203.37;1737708;82;21881;-93
2021/08/01 06:28:48;;;;;;;5.30;3.25;;;;;;;28.34;71.37;100208.36;1737838;82;21119;-93
2021/08/01 06:31:15;;;;;;;4.30;3.30;;;;;;;28.52;71.51;100214.75;1737734;81;21059;-88
2021/08/01 06:33:42;;;;;;;7.10;3.98;;;;;;;28.71;71.74;100208.65;1740086;78;20962;-94
2021/08/01 06:36:13;;;;;;;5.05;3.67;;;;;;;28.96;71.76;100199.27;1740079;78;21247;-91
2021/08/01 06:38:41;;;;;;;5.47;3.60;;;;;;;29.22;70.92;100201.34;1709465;82;21033;-88
2021/08/01 06:41:08;;;;;;;5.30;3.40;;;;;;;29.45;68.73;100207.20;1737584;82;21049;-94
2021/08/01 06:43:35;;;;;;;5.40;4.30;;;;;;;29.70;68.69;100201.96;1737641;82;21595;-93
2021/08/01 06:46:02;;;;;;;6.58;3.65;;;;;;;29.89;67.29;100198.56;1738394;82;21041;-93
2021/08/01 06:48:29;;;;;;;6.42;3.58;;;;;;;30.08;66.56;100202.80;1738356;82;21100;-94
2021/08/01 06:50:56;;;;;;;6.05;3.70;;;;;;;30.28;65.91;100208.64;1737453;81;21072;-89
2021/08/01 06:53:22;;;;;;;5.78;3.95;;;;;;;30.47;65.84;100207.83;1737851;82;21045;-94
2021/08/01 06:55:49;;;;;;;4.83;3.52;;;;;;;30.64;64.63;100208.22;1732638;82;21096;-93
2021/08/01 06:58:19;;;;;;;5.20;3.60;;;;;;;30.73;64.24;100201.42;1733055;81;21037;-88
2021/08/01 07:00:47;;;;;;;4.63;2.83;;;;;;;30.87;64.03;100203.91;1739909;82;20954;-95
2021/08/01 07:03:14;;;;;;;4.80;3.10;;;;;;;31.01;62.13;100196.63;1738014;81;21064;-94
2021/08/01 07:05:40;;;;;;;4.92;3.77;;;;;;;31.14;60.97;100202.50;1737483;81;21033;-88
2021/08/01 07:08:07;;;;;;;4.70;3.33;;;;;;;31.22;61.87;100204.77;1737994;81;21102;-92
2021/08/01 07:10:33;;;;;;;3.83;2.83;;;;;;;31.32;61.47;100205.04;1737652;82;21068;-88
2021/08/01 07:13:07;;;;;;;4.53;3.00;;;;;;;31.42;60.57;100206.92;1739022;81;20965;-88
2021/08/01 07:15:37;;;;;;;4.92;3.45;;;;;;;31.54;60.60;100199.25;1737498;82;21523;-95
2021/08/01 07:18:04;;;;;;;5.10;3.72;;;;;;;31.63;59.28;100202.33;1737543;82;21096;-87
2021/08/01 07:20:32;;;;;;;4.85;3.22;;;;;;;31.75;60.40;100212.81;1737447;82;21060;-94
2021/08/01 07:22:59;;;;;;;5.22;2.98;;;;;;;31.85;58.84;100206.16;1745262;81;21092;-94
2021/08/01 07:25:25;;;;;;;4.05;3.33;;;;;;;31.97;59.04;100211.84;1737663;82;21075;-88
2021/08/01 07:27:52;;;;;;;5.05;3.37;;;;;;;32.07;58.30;100206.00;1739139;81;21081;-88
2021/08/01 07:30:19;;;;;;;4.25;3.35;;;;;;;32.20;58.44;100208.19;1737589;82;21056;-93
2021/08/01 07:32:46;;;;;;;4.58;3.22;;;;;;;32.32;58.38;100203.27;1737529;82;21104;-94
2021/08/01 07:35:13;;;;;;;4.30;3.00;;;;;;;32.50;57.78;100209.41;1737732;82;21119;-92
2021/08/01 07:37:40;;;;;;;4.95;3.15;;;;;;;32.67;57.02;100206.64;1740584;81;21563;-90
2021/08/01 07:40:07;;;;;;;3.77;3.02;;;;;;;32.77;54.16;100201.36;1755869;81;21805;-95
2021/08/01 07:42:34;;;;;;;3.85;3.10;;;;;;;32.80;54.80;100201.89;1741085;82;21056;-88
2021/08/01 07:45:05;;;;;;;3.90;2.98;;;;;;;32.89;54.50;100204.92;1754038;81;21445;-93
2021/08/01 07:47:34;;;;;;;6.58;3.67;;;;;;;33.04;54.20;100201.77;1741549;82;21105;-94
2021/08/01 07:50:00;;;;;;;5.40;2.98;;;;;;;33.14;52.87;100200.75;1753768;81;21543;-92
2021/08/01 07:52:27;;;;;;;4.35;3.20;;;;;;;33.15;52.98;100215.86;1743052;81;21052;-89
2021/08/01 07:54:54;;;;;;;4.78;3.10;;;;;;;33.18;49.75;100211.34;1753688;81;21048;-93
2021/08/01 07:57:31;;;;;;;4.80;2.87;;;;;;;33.14;49.46;100202.95;1741254;82;21060;-93
2021/08/01 08:00:00;;;;;;;3.25;2.60;;;;;;;33.15;48.50;100210.83;1753723;81;21047;-93
2021/08/01 08:02:27;;;;;;;4.42;3.00;;;;;;;33.09;48.82;100202.69;1724785;83;21087;-90
2021/08/01 08:04:54;;;;;;;3.52;2.80;;;;;;;33.04;48.87;100210.27;1741209;82;21081;-94
2021/08/01 08:07:21;;;;;;;4.62;3.05;;;;;;;32.99;47.87;100203.88;1753682;81;21440;-88
2021/08/01 08:09:48;;;;;;;5.40;3.15;;;;;;;33.02;48.96;100201.41;1741559;82;21044;-94
2021/08/01 08:12:14;;;;;;;4.00;3.00;;;;;;;33.14;49.40;100208.62;1753932;81;22011;-91
2021/08/01 08:14:41;;;;;;;3.62;2.65;;;;;;;33.30;49.95;100203.58;1743058;82;21135;-94
2021/08/01 08:17:07;;;;;;;3.47;2.75;;;;;;;33.52;48.47;100198.17;1753837;81;21666;-94
2021/08/01 08:19:34;;;;;;;3.27;2.92;;;;;;;33.66;48.04;100197.05;1741503;82;21060;-89
2021/08/01 08:22:01;;;;;;;2.92;2.45;;;;;;;33.80;47.98;100200.11;1753908;81;21400;-89
2021/08/01 08:24:27;;;;;;;3.65;2.77;;;;;;;33.92;45.52;100207.09;1742625;82;20974;-88
2021/08/01 08:26:54;;;;;;;3.67;2.65;;;;;;;33.97;43.19;100200.88;1754327;81;21029;-87
2021/08/01 08:29:23;;;;;;;3.22;2.72;;;;;;;34.05;42.24;100204.50;1744191;80;21041;-89
2021/08/01 08:31:52;;;;;;;4.60;2.58;;;;;;;34.20;41.80;100202.69;1753986;81;21013;-93
2021/08/01 08:34:19;;;;;;;2.42;2.05;;;;;;;34.39;41.34;100206.63;1741902;82;21084;-94
2021/08/01 08:36:49;;;;;;;3.25;1.95;;;;;;;34.50;39.17;100198.61;1757460;81;21071;-93
2021/08/01 08:39:20;;;;;;;2.87;2.30;;;;;;;34.44;37.15;100205.44;1732503;82;21025;-89
2021/08/01 08:41:47;;;;;;;3.77;2.27;;;;;;;34.36;37.41;100197.59;1732065;82;21107;-89
2021/08/01 08:44:13;;;;;;;2.60;2.30;;;;;;;34.30;37.75;100202.22;1732178;82;21068;-89
2021/08/01 08:46:41;;;;;;;3.12;2.52;;;;;;;34.32;38.09;100194.06;1733713;82;20987;-89
2021/08/01 08:49:13;;;;;;;2.85;2.52;;;;;;;34.37;37.66;100196.34;1732837;81;21607;-94
2021/08/01 08:51:41;;;;;;;;;;;;;;;34.43;38.49;100203.06;1734758;82;21099;-89
2021/08/01 08:54:11;;;;;;;2.83;2.52;;;;;;;34.48;38.71;100203.92;1729299;83;20179;-90
2021/08/01 09:00:27;;;;;;;3.22;2.30;;;;;;;34.54;38.50;100200.70;1762346;81;21099;-88
2021/08/01 09:02:53;;;;;;;2.65;2.08;;;;;;;34.58;37.09;100190.05;1731852;82;21051;-89
2021/08/01 09:05:20;;;;;;;3.60;2.90;;;;;;;34.54;38.52;100192.19;1731307;82;21142;-95
2021/08/01 09:07:46;;;;;;;3.00;2.37;;;;;;;34.56;37.17;100191.74;1731026;82;21103;-91
2021/08/01 09:10:15;;;;;;;3.90;2.10;;;;;;;34.51;35.74;100184.58;1733276;82;21035;-89
2021/08/01 09:12:47;;;;;;;3.55;2.77;;;;;;;34.39;34.15;100179.05;1731822;82;21474;-88
2021/08/01 09:15:24;;;;;;;2.75;2.02;;;;;;;34.22;35.32;100184.02;1731856;82;21079;-93
2021/08/01 09:17:55;;;;;;;2.98;2.52;;;;;;;34.17;35.73;100181.70;1732096;82;21004;-93
2021/08/01 09:20:28;;;;;;;3.17;2.08;;;;;;;34.20;35.75;100173.74;1732143;82;21257;-93
2021/08/01 09:23:06;;;;;;;3.27;2.62;;;;;;;34.28;37.07;100180.63;1732771;82;21100;-88
2021/08/01 09:25:44;;;;;;;4.22;2.40;;;;;;;34.38;37.81;100176.69;1732112;82;20997;-94
2021/08/01 09:28:20;;;;;;;3.55;2.30;;;;;;;34.47;36.20;100174.77;1731933;82;22005;-88
2021/08/01 09:31:00;;;;;;;2.50;2.30;;;;;;;34.58;36.70;100171.61;1732185;82;21040;-94
2021/08/01 09:33:37;;;;;;;4.67;2.40;;;;;;;34.75;36.54;100175.81;1733181;82;20984;-91
2021/08/01 09:36:15;;;;;;;3.22;2.35;;;;;;;34.92;36.65;100178.71;1732088;82;21661;-95
2021/08/01 09:38:56;;;;;;;2.70;2.20;;;;;;;34.89;35.48;100171.08;1715548;82;21018;-94
2021/08/01 09:41:35;;;;;;;3.52;2.00;;;;;;;34.93;35.70;100167.52;1737781;82;21028;-92
2021/08/01 09:44:05;;;;;;;4.78;2.50;;;;;;;34.95;35.05;100166.44;1737638;82;21080;-89
2021/08/01 09:46:42;;;;;;;2.25;2.00;;;;;;;34.82;34.60;100161.40;1739214;82;21068;-89
2021/08/01 09:49:12;;;;;;;5.22;2.35;;;;;;;34.80;35.13;100166.09;1737548;82;20972;-93
2021/08/01 09:51:44;;;;;;;2.52;1.98;;;;;;;34.91;35.72;100164.33;1737885;81;21125;-93
2021/08/01 09:54:10;;;;;;;3.17;2.42;;;;;;;35.00;34.59;100171.55;1737865;81;21100;-94
2021/08/01 09:56:39;;;;;;;6.60;2.83;;;;;;;34.97;35.01;100171.05;1745284;81;21021;-89
2021/08/01 09:59:20;;;;;;;2.67;1.80;;;;;;;34.90;35.28;100150.77;1739444;82;21075;-93
2021/08/01 10:01:55;;;;;;;2.75;2.30;;;;;;;34.88;35.43;100151.05;1737139;82;21504;-95
2021/08/01 10:04:28;;;;;;;4.33;2.42;;;;;;;34.93;35.91;100155.37;1738197;81;21132;-93
2021/08/01 10:07:15;;;;;;;3.42;2.25;;;;;;;34.96;36.60;100148.78;1736856;82;21159;-89
2021/08/01 10:09:48;;;;;;;4.30;2.33;;;;;;;34.93;35.21;100154.73;1738665;82;20955;-89
2021/08/01 10:12:14;;;;;;;2.33;2.05;;;;;;;34.80;35.35;100149.70;1737539;82;21526;-89
2021/08/01 10:14:44;;;;;;;3.50;2.35;;;;;;;34.78;35.73;100150.14;1737878;81;21069;-91
2021/08/01 10:17:12;;;;;;;3.00;2.15;;;;;;;34.79;34.97;100153.77;1737531;82;21558;-89
2021/08/01 10:19:39;;;;;;;2.83;2.15;;;;;;;34.81;35.54;100156.95;1738163;82;21079;-95
2021/08/01 10:22:05;;;;;;;2.60;1.98;;;;;;;34.90;36.03;100157.08;1711477;78;21069;-91
2021/08/01 10:24:42;;;;;;;3.25;2.05;;;;;;;34.98;35.10;100149.91;1740753;77;21053;-89
2021/08/01 10:27:08;;;;;;;3.70;2.47;;;;;;;35.08;34.83;100153.02;1738038;82;21065;-89
2021/08/01 10:29:47;;;;;;;3.00;2.60;;;;;;;35.20;36.14;100147.83;1737582;82;21029;-94
2021/08/01 10:32:22;;;;;;;3.00;2.70;;;;;;;35.34;35.20;100150.19;1737732;82;21151;-94
2021/08/01 10:35:01;;;;;;;2.70;2.17;;;;;;;35.39;35.00;100145.34;1739095;82;21053;-88
2021/08/01 10:37:46;;;;;;;2.33;1.98;;;;;;;35.44;34.67;100150.45;1737698;81;21643;-94
2021/08/01 10:40:19;;;;;;;3.42;2.25;;;;;;;35.48;34.25;100141.16;1737610;82;21383;-94
2021/08/01 10:42:51;;;;;;;4.30;2.52;;;;;;;35.48;32.67;100139.73;1736615;82;21068;-94
2021/08/01 10:45:19;;;;;;;2.90;2.60;;;;;;;35.53;32.46;100142.02;1738018;82;21043;-88
2021/08/01 10:47:53;;;;;;;2.77;2.15;;;;;;;35.58;32.32;100144.09;1737319;82;21072;-88
2021/08/01 10:50:28;;;;;;;6.40;2.15;;;;;;;35.56;33.72;100140.30;1737398;82;21504;-94
2021/08/01 10:53:23;;;;;;;2.85;2.17;;;;;;;35.53;33.20;100139.18;1736919;82;21076;-93
2021/08/01 10:56:15;;;;;;;3.02;2.55;;;;;;;35.54;33.49;100134.28;1738726;82;21048;-94
2021/08/01 10:58:41;;;;;;;3.00;2.25;;;;;;;35.59;33.95;100138.59;1751317;81;21459;-88
2021/08/01 11:01:08;;;;;;;2.85;2.42;;;;;;;35.56;34.14;100136.65;1707893;82;21056;-88
2021/08/01 11:03:39;;;;;;;3.27;2.37;;;;;;;35.58;33.67;100129.88;1737814;82;23402;-94
2021/08/01 11:06:07;;;;;;;2.40;2.15;;;;;;;35.64;33.79;100126.67;1737935;82;21195;-95
2021/08/01 11:08:41;;;;;;;3.00;2.47;;;;;;;35.70;33.51;100134.12;1733628;81;21084;-94
2021/08/01 11:11:16;;;;;;;3.05;2.37;;;;;;;35.82;33.86;100131.07;1735118;82;21139;-94
2021/08/01 11:13:47;;;;;;;2.30;2.00;;;;;;;35.92;34.50;100135.56;1738082;82;21068;-94
2021/08/01 11:16:41;;;;;;;3.70;2.22;;;;;;;35.93;33.18;100135.75;1732148;81;21104;-94
2021/08/01 11:19:34;;;;;;;3.27;2.37;;;;;;;35.90;33.21;100132.39;1732545;82;21013;-92
2021/08/01 11:22:01;;;;;;;2.75;2.08;;;;;;;35.90;33.04;100128.13;1731815;82;21552;-92
2021/08/01 11:24:27;;;;;;;3.52;2.05;;;;;;;35.89;33.40;100135.08;1732217;82;21060;-93
2021/08/01 11:27:10;;;;;;;3.15;2.33;;;;;;;35.92;33.46;100131.30;1681351;82;21071;-92
2021/08/01 11:30:02;;;;;;;3.20;2.37;;;;;;;36.07;34.26;100129.36;1751897;81;21104;-88
2021/08/01 11:32:27;;;;;;;3.05;2.40;;;;;;;36.19;33.37;100128.52;1737502;82;21135;-88
2021/08/01 11:35:18;;;;;;;5.45;2.67;;;;;;;36.26;34.22;100121.78;1732582;81;21081;-93
2021/08/01 11:37:46;;;;;;;3.58;2.75;;;;;;;36.29;33.04;100123.05;1738582;81;21527;-88
2021/08/01 11:40:13;;;;;;;4.53;2.60;;;;;;;36.42;33.79;100137.81;1753888;81;21083;-89
2021/08/01 11:42:40;;;;;;;3.22;2.65;;;;;;;36.58;33.37;100131.30;1741818;82;21064;-88